Time;durP1;ratioP1;P1;durP2;ratioP2;P2;SDS_P1;SDS_P2;PMS_P1;PMS_P2;Temp;Humidity;BMP_temperature;BMP_pressure;BME280_temperature;BME280_humidity;BME280_pressure;Samples;Min_cycle;Max_cycle;Signal;HPM_P1;HPM_P2
2021/05/01 00:01:45;;;;;;;32.25;18.95;;;;;;;7.61;96.54;96179.59;4943619;28;20222;-70
2021/05/01 00:04:13;;;;;;;32.92;18.15;;;;;;;7.53;96.51;96179.22;4951947;28;20786;-71
2021/05/01 00:06:40;;;;;;;32.35;18.77;;;;;;;7.31;96.77;96178.75;4953367;28;20281;-71
2021/05/01 00:09:07;;;;;;;34.13;19.90;;;;;;;7.23;97.33;96189.50;4950457;28;20227;-70
2021/05/01 00:11:36;;;;;;;35.30;20.13;;;;;;;7.10;97.60;96185.13;4944741;28;20458;-70
2021/05/01 00:14:05;;;;;;;35.97;19.13;;;;;;;7.17;97.68;96181.25;4923027;28;20476;-71
2021/05/01 00:16:33;;;;;;;34.13;19.27;;;;;;;7.23;98.45;96181.75;4949251;28;20958;-71
2021/05/01 00:19:02;;;;;;;36.10;21.13;;;;;;;7.32;98.16;96181.25;4943495;28;20666;-71
2021/05/01 00:21:29;;;;;;;38.95;20.52;;;;;;;7.44;97.86;96177.16;4941786;28;20470;-73
2021/05/01 00:23:56;;;;;;;32.38;19.08;;;;;;;7.36;97.93;96181.94;4939079;28;20227;-71
2021/05/01 00:26:23;;;;;;;44.70;20.47;;;;;;;7.44;98.04;96170.19;4939375;28;20187;-71
2021/05/01 00:28:50;;;;;;;33.10;18.75;;;;;;;7.51;98.13;96165.53;4948410;28;21027;-71
2021/05/01 00:31:19;;;;;;;36.17;21.35;;;;;;;7.48;97.94;96163.94;4940171;28;20862;-70
2021/05/01 00:33:47;;;;;;;36.50;19.90;;;;;;;7.54;98.21;96160.16;4943268;28;20273;-72
2021/05/01 00:36:14;;;;;;;35.63;20.77;;;;;;;7.58;98.09;96159.06;4938382;28;20458;-72
2021/05/01 00:38:43;;;;;;;40.88;20.02;;;;;;;7.55;97.53;96161.81;4945976;28;20219;-71
2021/05/01 00:41:10;;;;;;;49.67;23.17;;;;;;;7.57;97.58;96154.81;4942042;28;20650;-71
2021/05/01 00:43:39;;;;;;;41.30;21.95;;;;;;;7.63;97.61;96157.03;4938892;28;20219;-70
2021/05/01 00:46:06;;;;;;;44.42;22.77;;;;;;;7.60;97.18;96157.22;4945912;28;20624;-71
2021/05/01 00:48:33;;;;;;;43.37;21.87;;;;;;;7.51;97.36;96150.00;4943001;28;20662;-70
2021/05/01 00:51:02;;;;;;;44.20;23.77;;;;;;;7.48;97.58;96148.41;4944588;28;20930;-72
2021/05/01 00:53:31;;;;;;;43.23;23.97;;;;;;;7.51;97.27;96144.81;4938709;28;20841;-71
2021/05/01 00:55:59;;;;;;;39.45;21.55;;;;;;;7.56;97.44;96153.97;4938722;28;20851;-70
2021/05/01 00:58:26;;;;;;;43.85;22.05;;;;;;;7.65;97.26;96157.81;4943748;28;20361;-71
2021/05/01 01:01:09;;;;;;;50.00;22.38;;;;;;;7.73;97.48;96160.78;4939555;28;20594;-70
2021/05/01 01:03:37;;;;;;;40.10;21.37;;;;;;;7.73;96.80;96165.97;4939396;28;20651;-70
2021/05/01 01:06:08;;;;;;;33.33;19.77;;;;;;;7.63;96.73;96160.47;4942832;28;20450;-71
2021/05/01 01:08:35;;;;;;;38.20;22.17;;;;;;;7.61;97.05;96151.13;4946382;28;20470;-71
2021/05/01 01:11:02;;;;;;;33.28;20.40;;;;;;;7.53;97.34;96141.22;4942513;28;20195;-71
2021/05/01 01:13:29;;;;;;;42.30;21.48;;;;;;;7.59;97.65;96152.97;4940866;28;20496;-71
2021/05/01 01:15:56;;;;;;;41.17;22.57;;;;;;;7.65;97.22;96142.25;4925785;28;20258;-71
2021/05/01 01:18:23;;;;;;;47.80;24.33;;;;;;;7.70;97.49;96143.66;4923959;28;20919;-71
2021/05/01 01:20:51;;;;;;;43.28;22.80;;;;;;;7.75;97.21;96133.88;4948763;28;20918;-71
2021/05/01 01:23:19;;;;;;;39.30;21.42;;;;;;;7.57;96.97;96134.09;4944089;28;20261;-71
2021/05/01 01:25:46;;;;;;;39.17;22.17;;;;;;;7.55;97.66;96141.97;4949545;28;20202;-73
2021/05/01 01:28:13;;;;;;;37.47;20.87;;;;;;;7.58;97.67;96136.59;4952723;28;20526;-72
2021/05/01 01:30:39;;;;;;;34.53;21.42;;;;;;;7.62;97.50;96147.59;4938571;28;20462;-71
2021/05/01 01:33:08;;;;;;;36.05;20.70;;;;;;;7.61;97.61;96145.94;4941576;28;20250;-71
2021/05/01 01:35:37;;;;;;;41.43;21.00;;;;;;;7.53;97.75;96148.13;4941857;28;20670;-72
2021/05/01 01:38:05;;;;;;;43.03;22.63;;;;;;;7.55;97.96;96148.88;4939763;28;20772;-72
2021/05/01 01:40:35;;;;;;;40.72;21.92;;;;;;;7.61;97.67;96140.75;4943763;28;20788;-73
2021/05/01 01:43:02;;;;;;;40.60;21.92;;;;;;;7.52;97.16;96134.34;4943673;28;20207;-72
2021/05/01 01:45:29;;;;;;;38.60;21.43;;;;;;;7.46;96.75;96139.06;4946668;28;20613;-72
2021/05/01 01:47:57;;;;;;;35.47;21.80;;;;;;;7.45;97.42;96139.97;4921740;28;20936;-71
2021/05/01 01:50:26;;;;;;;38.90;21.40;;;;;;;7.52;96.70;96138.72;4936830;28;20836;-71
2021/05/01 01:52:53;;;;;;;35.58;21.20;;;;;;;7.55;96.48;96135.94;4947108;28;20607;-71
2021/05/01 01:55:23;;;;;;;38.53;22.02;;;;;;;7.64;96.49;96136.25;4948672;28;20666;-71
2021/05/01 01:57:52;;;;;;;36.10;20.30;;;;;;;7.69;96.65;96134.22;4945167;28;20194;-71
2021/05/01 02:00:22;;;;;;;37.83;21.30;;;;;;;7.73;95.73;96140.06;4948272;28;20242;-72
2021/05/01 02:02:49;;;;;;;37.10;20.43;;;;;;;7.74;95.80;96139.94;4950190;28;20709;-73
2021/05/01 02:05:17;;;;;;;34.50;20.97;;;;;;;7.77;95.71;96137.19;4926766;28;21335;-73
2021/05/01 02:07:44;;;;;;;39.80;22.42;;;;;;;7.75;95.04;96144.22;4944456;28;20755;-73
2021/05/01 02:10:13;;;;;;;35.73;21.37;;;;;;;7.78;94.86;96138.00;4944061;28;20619;-71
2021/05/01 02:12:41;;;;;;;36.57;20.37;;;;;;;7.80;94.73;96146.56;4942012;28;20458;-73
2021/05/01 02:15:11;;;;;;;37.80;21.10;;;;;;;7.82;94.83;96148.13;4943601;28;20521;-71
2021/05/01 02:17:40;;;;;;;33.70;20.10;;;;;;;7.87;94.86;96153.88;4943925;28;20446;-72
2021/05/01 02:20:09;;;;;;;34.67;20.63;;;;;;;7.92;95.12;96148.41;4942833;28;20454;-71
2021/05/01 02:22:36;;;;;;;34.33;21.33;;;;;;;7.94;95.03;96149.19;4938853;28;20453;-71
2021/05/01 02:25:06;;;;;;;35.20;20.27;;;;;;;7.92;95.27;96138.91;4949501;28;20242;-73
2021/05/01 02:27:33;;;;;;;33.27;20.40;;;;;;;7.86;95.22;96126.28;4942969;28;20984;-73
2021/05/01 02:30:01;;;;;;;39.10;21.80;;;;;;;7.89;95.56;96120.09;4943739;28;21072;-74
2021/05/01 02:32:29;;;;;;;40.58;21.20;;;;;;;7.95;94.75;96127.53;4937709;28;20822;-71
2021/05/01 02:34:56;;;;;;;38.72;21.65;;;;;;;7.91;94.34;96132.03;4950571;28;20224;-71
2021/05/01 02:37:23;;;;;;;41.13;21.77;;;;;;;7.89;93.93;96120.09;4941704;28;20234;-71
2021/05/01 02:39:50;;;;;;;36.77;22.13;;;;;;;7.90;93.99;96121.75;4946863;28;20525;-70
2021/05/01 02:42:17;;;;;;;40.07;23.33;;;;;;;7.91;94.18;96118.25;4948576;28;20454;-70
2021/05/01 02:44:44;;;;;;;44.55;22.90;;;;;;;7.94;93.98;96113.72;4946278;28;20470;-71
2021/05/01 02:47:11;;;;;;;35.80;22.07;;;;;;;7.93;93.69;96108.63;4938767;28;20836;-71
2021/05/01 02:49:40;;;;;;;42.73;23.17;;;;;;;7.91;93.42;96098.38;4933853;28;20490;-72
2021/05/01 02:52:07;;;;;;;46.57;23.00;;;;;;;7.90;92.74;96098.44;4939415;28;20435;-71
2021/05/01 02:54:34;;;;;;;35.20;20.77;;;;;;;7.85;92.83;96092.69;4940619;28;20996;-72
2021/05/01 02:57:01;;;;;;;37.87;21.20;;;;;;;7.84;93.10;96101.41;4940963;28;20686;-71
2021/05/01 02:59:28;;;;;;;41.23;23.93;;;;;;;7.85;93.36;96100.47;4922353;28;20470;-71
2021/05/01 03:01:55;;;;;;;40.67;23.27;;;;;;;7.81;94.07;96097.22;4937107;28;20932;-72
2021/05/01 03:04:22;;;;;;;51.42;22.65;;;;;;;7.81;94.21;96086.03;4937756;28;20467;-72
2021/05/01 03:06:50;;;;;;;37.23;22.60;;;;;;;7.80;93.89;96084.38;4940694;28;20555;-73
2021/05/01 03:09:17;;;;;;;46.47;25.03;;;;;;;7.82;94.64;96087.72;4942426;28;20489;-71
2021/05/01 03:11:44;;;;;;;37.03;22.90;;;;;;;7.83;94.48;96094.56;4946155;28;20970;-71
2021/05/01 03:14:10;;;;;;;46.27;26.90;;;;;;;7.82;94.63;96085.13;4943046;28;21121;-71
2021/05/01 03:16:38;;;;;;;42.83;23.33;;;;;;;7.82;94.83;96082.53;4938329;28;20446;-71
2021/05/01 03:19:05;;;;;;;45.63;26.10;;;;;;;7.84;94.38;96080.66;4946729;28;20470;-72
2021/05/01 03:21:32;;;;;;;40.70;23.53;;;;;;;7.76;94.41;96060.41;4938104;28;20761;-73
2021/05/01 03:24:00;;;;;;;41.63;23.43;;;;;;;7.78;94.83;96062.91;4943498;28;20593;-72
2021/05/01 03:26:27;;;;;;;44.30;25.33;;;;;;;7.79;94.72;96059.41;4948644;28;20979;-72
2021/05/01 03:28:54;;;;;;;46.47;26.80;;;;;;;7.82;94.77;96061.81;4941889;28;20476;-72
2021/05/01 03:31:21;;;;;;;40.27;23.30;;;;;;;7.81;94.59;96070.50;4942317;28;20716;-71
2021/05/01 03:33:48;;;;;;;39.80;22.30;;;;;;;7.77;94.72;96080.22;4943950;28;20488;-74
2021/05/01 03:36:14;;;;;;;39.47;22.73;;;;;;;7.79;94.64;96082.72;4950105;28;20447;-72
2021/05/01 03:38:41;;;;;;;39.30;22.93;;;;;;;7.79;94.27;96078.34;4943451;28;20458;-71
2021/05/01 03:41:09;;;;;;;42.77;24.33;;;;;;;7.81;94.02;96079.09;4941783;28;20802;-73
2021/05/01 03:43:36;;;;;;;41.93;22.50;;;;;;;7.76;94.15;96072.53;4936965;28;20465;-73
2021/05/01 03:46:03;;;;;;;42.20;22.20;;;;;;;7.78;94.07;96078.44;4944390;28;20450;-72
2021/05/01 03:48:30;;;;;;;40.27;24.00;;;;;;;7.74;94.09;96074.38;4944093;28;20508;-71
2021/05/01 03:50:57;;;;;;;41.23;22.90;;;;;;;7.74;94.68;96071.78;4924059;28;20438;-71
2021/05/01 03:53:24;;;;;;;41.73;22.30;;;;;;;7.80;94.73;96068.84;4939005;28;20446;-71
2021/05/01 03:55:50;;;;;;;46.03;24.67;;;;;;;7.77;94.62;96069.84;4942146;28;20516;-72
2021/05/01 03:58:18;;;;;;;45.70;25.57;;;;;;;7.71;94.08;96054.66;4933972;28;20985;-71
2021/05/01 04:00:45;;;;;;;43.97;24.80;;;;;;;7.73;94.00;96063.19;4953674;28;20762;-71
2021/05/01 04:03:12;;;;;;;45.40;25.30;;;;;;;7.78;94.05;96066.34;4954412;28;20482;-71
2021/05/01 04:05:39;;;;;;;42.07;24.27;;;;;;;7.74;93.71;96084.75;4940969;28;20903;-70
2021/05/01 04:08:06;;;;;;;39.83;23.13;;;;;;;7.76;93.77;96088.91;4946682;28;20461;-71
2021/05/01 04:10:33;;;;;;;40.90;23.95;;;;;;;7.69;92.82;96077.25;4945309;28;20466;-71
2021/05/01 04:13:01;;;;;;;42.50;23.90;;;;;;;7.63;93.27;96082.78;4945249;28;20282;-70
2021/05/01 04:15:29;;;;;;;38.80;23.47;;;;;;;7.61;94.27;96071.69;4940384;28;20583;-71
2021/05/01 04:17:56;;;;;;;38.07;21.87;;;;;;;7.64;94.42;96068.09;4949311;28;20845;-72
2021/05/01 04:20:23;;;;;;;45.75;24.88;;;;;;;7.65;94.14;96056.81;4939531;28;20450;-71
2021/05/01 04:22:51;;;;;;;37.85;22.60;;;;;;;7.75;94.44;96081.22;4943567;28;20634;-71
2021/05/01 04:25:18;;;;;;;41.70;23.20;;;;;;;7.79;94.47;96085.31;4944015;28;20539;-71
2021/05/01 04:27:45;;;;;;;40.15;22.70;;;;;;;7.78;94.24;96086.22;4950327;28;20574;-70
2021/05/01 04:30:13;;;;;;;44.63;22.97;;;;;;;7.83;94.58;96084.19;4944056;28;20219;-71
2021/05/01 04:32:41;;;;;;;42.53;23.65;;;;;;;7.85;94.21;96067.63;4945083;28;20936;-70
2021/05/01 04:35:09;;;;;;;42.20;22.40;;;;;;;7.89;94.25;96076.91;4944250;28;20728;-73
2021/05/01 04:37:36;;;;;;;42.17;24.27;;;;;;;7.87;94.28;96070.97;4941299;28;20483;-75
2021/05/01 04:40:05;;;;;;;41.20;24.02;;;;;;;7.89;94.25;96076.91;4952389;28;20560;-71
2021/05/01 04:42:31;;;;;;;37.30;23.05;;;;;;;7.99;94.27;96079.75;4948771;28;20639;-71
2021/05/01 04:44:58;;;;;;;42.00;21.23;;;;;;;7.89;93.59;96078.66;4939892;28;20293;-72
2021/05/01 04:47:25;;;;;;;35.58;21.70;;;;;;;7.69;91.72;96082.44;4941340;28;20450;-71
2021/05/01 04:49:53;;;;;;;39.93;22.10;;;;;;;7.67;92.50;96073.06;4948514;28;20999;-73
2021/05/01 04:52:22;;;;;;;41.13;22.33;;;;;;;7.53;93.47;96062.69;4943411;28;20459;-71
2021/05/01 04:54:49;;;;;;;37.40;21.80;;;;;;;7.58;93.54;96061.50;4949536;28;20470;-71
2021/05/01 04:57:16;;;;;;;37.65;21.80;;;;;;;7.67;93.00;96063.56;4938385;28;20190;-73
2021/05/01 04:59:43;;;;;;;37.13;20.90;;;;;;;7.71;91.78;96061.59;4939527;28;20751;-73
2021/05/01 05:02:10;;;;;;;41.65;22.10;;;;;;;7.72;91.37;96060.69;4940076;28;20282;-71
2021/05/01 05:04:37;;;;;;;35.03;21.45;;;;;;;7.64;91.15;96068.09;4944537;28;20570;-71
2021/05/01 05:07:05;;;;;;;38.30;22.48;;;;;;;7.63;92.23;96071.56;4940105;28;20615;-71
2021/05/01 05:09:32;;;;;;;34.13;20.60;;;;;;;7.51;93.05;96077.50;4947832;28;20731;-71
2021/05/01 05:11:59;;;;;;;34.42;20.90;;;;;;;7.57;93.38;96077.13;4948075;28;20438;-70
2021/05/01 05:14:26;;;;;;;27.55;17.08;;;;;;;7.69;92.75;96076.41;4942579;28;20237;-72
2021/05/01 05:16:53;;;;;;;28.80;16.97;;;;;;;7.69;91.20;96081.56;4948199;28;20222;-71
2021/05/01 05:19:20;;;;;;;33.80;19.13;;;;;;;7.66;91.26;96058.47;4950967;28;20473;-71
2021/05/01 05:21:47;;;;;;;30.17;18.85;;;;;;;7.75;91.84;96078.63;4948510;28;20952;-71
2021/05/01 05:24:15;;;;;;;31.50;16.98;;;;;;;7.75;91.15;96076.03;4926136;28;20700;-73
2021/05/01 05:26:42;;;;;;;29.42;18.92;;;;;;;7.89;89.66;96078.66;4942917;28;20250;-71
2021/05/01 05:29:11;;;;;;;33.08;19.65;;;;;;;7.93;88.97;96086.16;4945750;28;20273;-71
2021/05/01 05:31:37;;;;;;;33.55;20.15;;;;;;;7.95;89.53;96088.66;4942830;28;20243;-71
2021/05/01 05:34:04;;;;;;;34.33;20.10;;;;;;;7.97;89.56;96072.09;4945122;28;21013;-71
2021/05/01 05:36:31;;;;;;;33.27;21.90;;;;;;;8.02;90.07;96067.44;4944555;28;20564;-72
2021/05/01 05:38:59;;;;;;;36.67;21.43;;;;;;;8.18;90.44;96057.81;4949674;28;20975;-71
2021/05/01 05:41:28;;;;;;;36.30;20.13;;;;;;;8.32;90.29;96043.13;4939224;28;20533;-75
2021/05/01 05:43:55;;;;;;;34.47;20.10;;;;;;;8.45;90.17;96048.38;4943317;28;20479;-73
2021/05/01 05:46:22;;;;;;;26.60;17.13;;;;;;;8.53;90.06;96049.56;4941219;28;20911;-70
2021/05/01 05:48:49;;;;;;;30.57;18.83;;;;;;;8.53;89.62;96059.94;4940518;28;20885;-71
2021/05/01 05:51:16;;;;;;;36.23;21.10;;;;;;;8.55;89.91;96059.84;4938203;28;20791;-71
2021/05/01 05:53:48;;;;;;;30.57;18.77;;;;;;;8.63;89.05;96073.16;4938267;28;20956;-70
2021/05/01 05:56:15;;;;;;;31.80;19.50;;;;;;;8.64;88.03;96078.25;4937915;28;20928;-71
2021/05/01 05:58:43;;;;;;;34.13;19.77;;;;;;;8.48;87.65;96074.94;4940637;28;21012;-71
2021/05/01 06:01:11;;;;;;;36.93;20.33;;;;;;;8.53;88.53;96064.28;4943772;28;20921;-71
2021/05/01 06:03:39;;;;;;;34.70;19.60;;;;;;;8.61;88.88;96059.44;4941551;28;20865;-71
2021/05/01 06:06:11;;;;;;;35.27;20.37;;;;;;;8.71;88.95;96061.34;4940178;28;20751;-71
2021/05/01 06:08:39;;;;;;;33.57;20.87;;;;;;;8.78;88.86;96060.03;4942546;28;20450;-72
2021/05/01 06:11:09;;;;;;;32.50;21.03;;;;;;;8.77;88.54;96048.00;4940813;28;20450;-71
2021/05/01 06:13:36;;;;;;;44.20;20.67;;;;;;;8.81;88.62;96054.69;4943058;28;20471;-71
2021/05/01 06:16:06;;;;;;;35.00;19.90;;;;;;;8.89;88.65;96056.75;4940998;28;20770;-72
2021/05/01 06:18:35;;;;;;;33.60;19.73;;;;;;;8.99;88.52;96050.88;4942765;28;20562;-71
2021/05/01 06:21:02;;;;;;;30.10;19.43;;;;;;;9.08;88.28;96050.28;4937677;28;20474;-71
2021/05/01 06:23:30;;;;;;;34.30;20.47;;;;;;;9.14;87.43;96059.47;4946787;28;20924;-71
2021/05/01 06:25:58;;;;;;;35.70;18.20;;;;;;;9.09;86.93;96045.94;4944825;28;20773;-72
2021/05/01 06:28:27;;;;;;;31.13;18.97;;;;;;;9.18;86.24;96064.34;4912669;28;20953;-72
2021/05/01 06:30:54;;;;;;;29.40;18.40;;;;;;;9.27;85.70;96055.13;4939534;28;20926;-73
2021/05/01 06:33:24;;;;;;;32.73;19.43;;;;;;;9.33;85.44;96058.16;4943897;28;20853;-71
2021/05/01 06:35:51;;;;;;;34.97;19.97;;;;;;;9.36;85.57;96064.91;4942660;28;20524;-71
2021/05/01 06:38:17;;;;;;;32.97;19.00;;;;;;;9.35;84.28;96071.03;4949041;28;20781;-71
2021/05/01 06:40:48;;;;;;;33.30;21.13;;;;;;;9.17;84.45;96073.09;4943477;28;20439;-70
2021/05/01 06:43:27;;;;;;;30.77;19.03;;;;;;;9.25;84.93;96072.56;4946857;28;20472;-72
2021/05/01 06:45:55;;;;;;;39.70;21.40;;;;;;;9.22;85.38;96077.97;4946034;28;20446;-71
2021/05/01 06:48:26;;;;;;;145.77;75.47;;;;;;;9.33;85.57;96081.53;4940730;28;20937;-73
2021/05/01 06:50:58;;;;;;;111.93;54.30;;;;;;;9.40;84.86;96072.41;4938079;28;21038;-70
2021/05/01 06:53:29;;;;;;;37.43;22.03;;;;;;;9.46;84.39;96079.81;4941201;28;20450;-71
2021/05/01 06:56:00;;;;;;;37.73;22.33;;;;;;;9.50;84.59;96078.66;4947671;28;20445;-71
2021/05/01 06:58:29;;;;;;;37.47;21.13;;;;;;;9.60;84.47;96090.09;4938202;28;20441;-72
2021/05/01 07:00:56;;;;;;;37.00;22.13;;;;;;;9.67;84.63;96078.34;4948001;28;21038;-72
2021/05/01 07:03:26;;;;;;;40.37;21.53;;;;;;;9.71;85.20;96072.03;4947202;28;20526;-71
2021/05/01 07:05:56;;;;;;;35.03;21.37;;;;;;;9.83;85.07;96065.19;4945203;28;20473;-71
2021/05/01 07:08:23;;;;;;;35.80;22.13;;;;;;;9.55;83.30;96060.16;4936589;28;21154;-70
2021/05/01 07:10:50;;;;;;;36.13;22.03;;;;;;;9.65;83.82;96062.03;4942253;28;20763;-72
2021/05/01 07:13:17;;;;;;;35.13;21.30;;;;;;;9.73;84.39;96062.34;4946894;28;20464;-71
2021/05/01 07:15:45;;;;;;;40.87;22.97;;;;;;;9.78;84.14;96062.88;4938879;28;20438;-70
2021/05/01 07:18:16;;;;;;;36.30;22.50;;;;;;;9.61;83.46;96062.34;4940530;28;20961;-72
2021/05/01 07:20:45;;;;;;;37.60;22.57;;;;;;;9.41;82.37;96066.28;4938198;28;21028;-72
2021/05/01 07:23:11;;;;;;;41.67;22.20;;;;;;;9.02;82.62;96081.84;4947243;28;20446;-70
2021/05/01 07:25:38;;;;;;;38.37;24.33;;;;;;;9.04;84.33;96084.34;4938518;28;20481;-71
2021/05/01 07:28:07;;;;;;;40.17;23.30;;;;;;;9.41;85.15;96073.22;4946093;28;20677;-72
2021/05/01 07:30:39;;;;;;;41.50;22.80;;;;;;;9.66;83.65;96066.31;4943988;28;20525;-73
2021/05/01 07:33:12;;;;;;;38.30;22.37;;;;;;;10.01;82.87;96059.56;4947091;28;20520;-74
2021/05/01 07:35:41;;;;;;;41.13;23.90;;;;;;;10.51;82.50;96054.31;4919627;28;20886;-72
2021/05/01 07:38:13;;;;;;;37.83;22.57;;;;;;;10.68;81.14;96040.94;4945353;28;20464;-73
2021/05/01 07:40:40;;;;;;;40.03;22.87;;;;;;;10.79;80.59;96043.63;4937235;28;20955;-71
2021/05/01 07:43:08;;;;;;;33.03;22.40;;;;;;;10.90;80.69;96056.69;4941359;28;20436;-70
2021/05/01 07:45:36;;;;;;;38.80;21.70;;;;;;;10.94;79.96;96062.50;4948019;28;20489;-71
2021/05/01 07:48:09;;;;;;;45.93;23.50;;;;;;;10.87;79.19;96067.34;4949288;28;20456;-73
2021/05/01 07:50:36;;;;;;;37.30;21.83;;;;;;;10.70;78.79;96067.69;4945574;28;20470;-72
2021/05/01 07:53:03;;;;;;;39.40;22.60;;;;;;;10.68;79.17;96055.75;4948865;28;20929;-70
2021/05/01 07:55:32;;;;;;;45.40;24.10;;;;;;;10.76;79.68;96041.22;4950721;28;20984;-72
2021/05/01 07:57:59;;;;;;;41.43;22.07;;;;;;;10.71;79.00;96043.34;4947290;28;20442;-71
2021/05/01 08:00:26;;;;;;;35.80;23.07;;;;;;;10.53;78.31;96036.00;4940413;28;20630;-71
2021/05/01 08:02:53;;;;;;;31.47;20.10;;;;;;;10.49;77.22;96058.81;4943589;28;20851;-72
2021/05/01 08:05:21;;;;;;;39.47;22.17;;;;;;;10.38;78.63;96058.72;4952282;28;20490;-69
2021/05/01 08:07:48;;;;;;;38.43;22.50;;;;;;;10.44;80.02;96063.50;4950086;28;20963;-71
2021/05/01 08:10:16;;;;;;;93.83;49.70;;;;;;;10.67;79.89;96047.09;4951299;28;20462;-71
2021/05/01 08:12:43;;;;;;;40.37;25.80;;;;;;;10.81;79.97;96044.34;4948603;28;20501;-72
2021/05/01 08:15:11;;;;;;;30.23;20.43;;;;;;;10.90;79.15;96046.28;4944567;28;20454;-75
2021/05/01 08:17:40;;;;;;;32.20;20.57;;;;;;;10.81;78.18;96043.50;4945678;28;20434;-72
2021/05/01 08:20:08;;;;;;;34.40;21.80;;;;;;;10.56;78.58;96048.78;4939668;28;20478;-70
2021/05/01 08:22:36;;;;;;;35.47;22.03;;;;;;;10.30;79.46;96063.63;4927087;28;20442;-70
2021/05/01 08:25:06;;;;;;;35.10;19.37;;;;;;;9.99;78.69;96045.00;4949452;28;20593;-71
2021/05/01 08:27:33;;;;;;;34.77;21.70;;;;;;;10.13;79.56;96058.75;4944262;28;20808;-71
2021/05/01 08:30:01;;;;;;;36.30;21.30;;;;;;;10.28;80.34;96055.09;4944009;28;20539;-72
2021/05/01 08:32:30;;;;;;;36.50;22.17;;;;;;;10.41;80.20;96053.31;4939968;28;20505;-70
2021/05/01 08:34:57;;;;;;;32.73;20.27;;;;;;;10.26;79.93;96059.56;4943528;28;20473;-70
2021/05/01 08:37:24;;;;;;;32.33;21.07;;;;;;;10.31;81.09;96067.88;4944106;28;20917;-71
2021/05/01 08:39:51;;;;;;;39.17;20.67;;;;;;;10.27;79.62;96063.84;4941861;28;20853;-70
2021/05/01 08:42:18;;;;;;;34.87;21.60;;;;;;;10.16;79.93;96063.75;4945920;28;20775;-71
2021/05/01 08:44:45;;;;;;;37.03;20.63;;;;;;;9.95;79.22;96070.38;4938581;28;20474;-71
2021/05/01 08:47:13;;;;;;;39.00;20.33;;;;;;;9.76;79.71;96080.38;4940150;28;20762;-71
2021/05/01 08:49:41;;;;;;;36.33;21.93;;;;;;;9.36;80.59;96078.72;4939973;28;20473;-71
2021/05/01 08:52:09;;;;;;;36.17;21.77;;;;;;;9.13;81.36;96087.19;4942342;28;20949;-74
2021/05/01 08:54:36;;;;;;;40.40;21.23;;;;;;;9.03;81.69;96074.88;4944377;28;21039;-70
2021/05/01 08:57:24;;;;;;;33.20;19.50;;;;;;;9.04;81.58;96084.34;4943990;28;20508;-70
2021/05/01 08:59:51;;;;;;;38.73;22.33;;;;;;;9.05;81.68;96081.66;4942227;28;20980;-70
2021/05/01 09:02:21;;;;;;;34.10;19.80;;;;;;;9.07;82.34;96090.16;4943379;28;20470;-71
2021/05/01 09:04:50;;;;;;;39.67;23.83;;;;;;;8.93;82.35;96076.41;4946142;28;20535;-72
2021/05/01 09:07:18;;;;;;;44.57;24.70;;;;;;;8.99;83.07;96079.44;4943389;28;20761;-70
2021/05/01 09:09:52;;;;;;;40.60;21.00;;;;;;;8.92;82.98;96054.81;4939418;28;20529;-70
2021/05/01 09:12:34;;;;;;;42.43;22.60;;;;;;;9.16;82.89;96058.41;4940272;28;20898;-70
2021/05/01 09:15:03;;;;;;;36.00;21.77;;;;;;;9.30;82.71;96066.13;4945344;28;20461;-72
2021/05/01 09:17:31;;;;;;;36.60;21.73;;;;;;;9.36;83.04;96065.72;4944007;28;20435;-69
2021/05/01 09:20:03;;;;;;;36.87;20.47;;;;;;;9.64;82.83;96052.59;4944883;28;20539;-72
2021/05/01 09:22:30;;;;;;;137.27;70.30;;;;;;;9.89;82.37;96059.56;4920729;28;20450;-71
2021/05/01 09:25:08;;;;;;;90.03;48.37;;;;;;;10.17;81.97;96064.59;4942431;28;21051;-69
2021/05/01 09:28:07;;;;;;;43.23;24.80;;;;;;;10.37;80.01;96067.47;4947530;28;20934;-70
2021/05/01 09:30:37;;;;;;;35.50;21.67;;;;;;;10.43;79.56;96059.22;4941741;28;20844;-71
2021/05/01 09:33:25;;;;;;;35.60;21.23;;;;;;;10.53;80.50;96060.25;4943803;28;20967;-70
2021/05/01 09:36:01;;;;;;;39.67;22.40;;;;;;;10.56;81.25;96067.84;4927009;28;20502;-68
2021/05/01 09:38:34;;;;;;;37.57;21.03;;;;;;;10.56;81.61;96059.19;4950659;28;20938;-68
2021/05/01 09:41:13;;;;;;;35.00;21.17;;;;;;;10.70;80.95;96059.88;4941950;28;20438;-70
2021/05/01 09:43:57;;;;;;;31.70;19.43;;;;;;;10.79;80.64;96054.03;4921817;28;20547;-71
2021/05/01 09:46:24;;;;;;;39.27;21.60;;;;;;;10.74;80.54;96058.72;4939113;28;20492;-70
2021/05/01 09:49:08;;;;;;;37.13;20.63;;;;;;;10.74;80.22;96045.72;4937602;28;20843;-70
2021/05/01 09:51:50;;;;;;;33.40;20.80;;;;;;;10.82;80.38;96056.41;4945336;28;20450;-70
2021/05/01 09:54:19;;;;;;;34.23;20.80;;;;;;;10.86;80.42;96052.66;4938334;28;20470;-73
2021/05/01 09:56:48;;;;;;;34.60;21.50;;;;;;;10.83;79.36;96050.25;4943034;28;20476;-73
2021/05/01 09:59:15;;;;;;;35.80;21.80;;;;;;;10.85;79.53;96037.13;4947876;28;20466;-73
2021/05/01 10:01:42;;;;;;;37.30;22.43;;;;;;;11.01;79.39;96042.91;4939374;28;20523;-75
2021/05/01 10:04:16;;;;;;;33.73;20.23;;;;;;;11.00;79.64;96036.88;4937433;28;20795;-73
2021/05/01 10:06:49;;;;;;;38.90;22.83;;;;;;;11.07;80.30;96061.53;4934654;28;20485;-75
2021/05/01 10:09:24;;;;;;;33.93;20.37;;;;;;;11.09;79.58;96056.19;4948146;28;20451;-75
2021/05/01 10:11:53;;;;;;;35.90;22.17;;;;;;;11.08;80.84;96051.94;4942914;28;20457;-72
2021/05/01 10:14:35;;;;;;;34.53;22.20;;;;;;;11.06;80.00;96052.03;4942656;28;20961;-74
2021/05/01 10:17:02;;;;;;;34.40;20.40;;;;;;;11.04;80.42;96048.72;4939065;28;20906;-71
2021/05/01 10:19:47;;;;;;;39.93;23.80;;;;;;;11.20;81.87;96049.25;4948207;28;20469;-75
2021/05/01 10:22:36;;;;;;;37.10;22.60;;;;;;;11.25;81.16;96049.75;4941128;28;20934;-74
2021/05/01 10:25:06;;;;;;;44.33;26.00;;;;;;;11.31;81.12;96041.50;4942245;28;20956;-74
2021/05/01 10:27:47;;;;;;;40.30;23.90;;;;;;;11.33;81.39;96039.59;4938825;28;20438;-72
2021/05/01 10:30:27;;;;;;;41.87;25.33;;;;;;;11.40;82.03;96043.41;4947253;28;20466;-73
2021/05/01 10:32:58;;;;;;;40.23;24.73;;;;;;;11.50;82.13;96041.78;4945259;28;20455;-74
2021/05/01 10:35:30;;;;;;;39.70;24.63;;;;;;;11.43;80.04;96030.16;4943739;28;20519;-75
2021/05/01 10:37:58;;;;;;;36.27;22.40;;;;;;;11.49;80.22;96028.88;4944449;28;20450;-75
2021/05/01 10:40:41;;;;;;;40.17;24.20;;;;;;;11.52;80.62;96037.31;4939678;28;20825;-72
2021/05/01 10:43:11;;;;;;;38.10;23.47;;;;;;;11.42;81.10;96038.91;4945432;28;20991;-73
2021/05/01 10:45:38;;;;;;;43.67;24.20;;;;;;;11.49;79.16;96040.13;4943607;28;20547;-72
2021/05/01 10:48:07;;;;;;;138.63;72.13;;;;;;;11.63;80.32;96032.13;4940118;28;20936;-73
2021/05/01 10:50:39;;;;;;;40.17;26.30;;;;;;;11.66;80.10;96026.72;4944507;28;20861;-72
2021/05/01 10:53:07;;;;;;;47.00;24.10;;;;;;;11.66;80.87;96033.69;4947400;28;20443;-72
2021/05/01 10:55:45;;;;;;;38.50;24.97;;;;;;;11.72;79.94;96041.88;4941769;28;20805;-72
2021/05/01 10:58:12;;;;;;;37.40;22.60;;;;;;;11.60;80.06;96029.78;4937224;28;20446;-72
2021/05/01 11:00:44;;;;;;;31.33;19.93;;;;;;;11.56;80.43;96030.09;4948221;28;20484;-74
2021/05/01 11:03:15;;;;;;;32.30;22.20;;;;;;;11.66;80.32;96029.31;4946239;28;20562;-73
2021/05/01 11:05:44;;;;;;;37.13;23.27;;;;;;;11.46;79.10;96029.94;4933510;28;20957;-72
2021/05/01 11:08:26;;;;;;;42.43;22.87;;;;;;;10.99;79.11;96035.19;4941120;28;20442;-72
2021/05/01 11:10:54;;;;;;;37.30;23.17;;;;;;;11.12;79.92;96035.97;4945455;28;20505;-74
2021/05/01 11:13:26;;;;;;;38.10;23.80;;;;;;;10.79;79.85;96040.19;4946705;28;20929;-72
2021/05/01 11:15:57;;;;;;;34.10;21.30;;;;;;;10.52;81.33;96039.53;4943376;28;20972;-72
2021/05/01 11:18:26;;;;;;;37.07;22.17;;;;;;;10.73;82.95;96038.00;4945286;28;20450;-74
2021/05/01 11:20:59;;;;;;;47.43;26.97;;;;;;;11.12;82.04;96041.16;4939243;28;20751;-73
2021/05/01 11:23:30;;;;;;;37.07;22.17;;;;;;;11.51;80.74;96043.47;4926941;28;20935;-72
2021/05/01 11:25:59;;;;;;;35.90;22.40;;;;;;;11.68;80.10;96030.03;4939979;28;20466;-71
2021/05/01 11:28:27;;;;;;;35.43;22.00;;;;;;;11.91;78.99;96052.59;4941489;28;20447;-73
2021/05/01 11:30:55;;;;;;;38.30;23.67;;;;;;;12.01;78.91;96044.91;4938750;28;20446;-73